Time;durP1;ratioP1;P1;durP2;ratioP2;P2;SDS_P1;SDS_P2;PMS_P1;PMS_P2;Temp;Humidity;BMP_temperature;BMP_pressure;BME280_temperature;BME280_humidity;BME280_pressure;Samples;Min_cycle;Max_cycle;Signal;HPM_P1;HPM_P2
2022/02/12 00:02:24;;;;;;;9.23;1.80;;;25.00;69.20;;;;;;5050481;28;20029;-72
2022/02/12 00:04:50;;;;;;;4.63;2.10;;;25.00;69.30;;;;;;5050340;28;20100;-69
2022/02/12 00:07:17;;;;;;;3.60;2.15;;;25.00;69.30;;;;;;5049051;28;20039;-70
2022/02/12 00:09:43;;;;;;;4.68;1.85;;;25.00;69.40;;;;;;5050691;28;20027;-71
2022/02/12 00:12:10;;;;;;;4.57;2.00;;;25.00;69.50;;;;;;5044924;28;20059;-71
2022/02/12 00:14:36;;;;;;;6.97;2.65;;;24.90;69.60;;;;;;5050448;28;20137;-72
2022/02/12 00:17:03;;;;;;;8.90;3.95;;;24.90;69.60;;;;;;5049404;28;20032;-72
2022/02/12 00:19:29;;;;;;;6.40;2.90;;;24.90;69.70;;;;;;5050575;28;20396;-72
2022/02/12 00:21:56;;;;;;;11.77;3.22;;;24.90;69.60;;;;;;5049779;28;20044;-72
2022/02/12 00:24:22;;;;;;;14.00;4.68;;;24.90;69.80;;;;;;5049638;28;20025;-72
2022/02/12 00:26:49;;;;;;;25.20;4.70;;;24.90;70.00;;;;;;5050292;28;20029;-72
2022/02/12 00:29:18;;;;;;;10.50;4.80;;;24.90;70.20;;;;;;5048329;28;20077;-72
2022/02/12 00:31:45;;;;;;;15.40;5.72;;;24.90;70.20;;;;;;5046322;28;20029;-71
2022/02/12 00:34:11;;;;;;;11.55;4.30;;;24.80;70.10;;;;;;5049130;28;20131;-73
2022/02/12 00:36:38;;;;;;;10.00;4.28;;;24.80;70.10;;;;;;5050094;28;20063;-72
2022/02/12 00:39:05;;;;;;;9.98;4.72;;;24.80;70.20;;;;;;5049398;28;20017;-72
2022/02/12 00:41:32;;;;;;;12.40;4.72;;;24.80;70.20;;;;;;5049968;28;20021;-71
2022/02/12 00:43:59;;;;;;;10.35;5.55;;;24.80;70.20;;;;;;5049598;28;20045;-71
2022/02/12 00:46:25;;;;;;;11.45;4.53;;;24.80;70.10;;;;;;5048761;28;20063;-71
2022/02/12 00:48:52;;;;;;;11.85;4.50;;;24.70;70.10;;;;;;5049932;28;20067;-72
2022/02/12 00:51:18;;;;;;;9.57;5.07;;;24.70;70.10;;;;;;5048775;28;20013;-72
2022/02/12 00:53:45;;;;;;;23.02;6.38;;;24.70;70.10;;;;;;5049911;28;20071;-73
2022/02/12 00:56:11;;;;;;;12.18;6.45;;;24.70;70.20;;;;;;5040564;28;20559;-71
2022/02/12 00:58:38;;;;;;;11.55;4.95;;;24.70;70.30;;;;;;5047455;28;20392;-72
2022/02/12 01:01:04;;;;;;;11.07;4.95;;;24.70;70.30;;;;;;5048643;28;20052;-72
2022/02/12 01:03:31;;;;;;;11.63;4.60;;;24.70;70.40;;;;;;5048869;28;20097;-72
2022/02/12 01:05:57;;;;;;;10.50;4.32;;;24.70;70.40;;;;;;5049708;28;20119;-72
2022/02/12 01:08:24;;;;;;;10.13;4.35;;;24.70;70.50;;;;;;5048470;28;20519;-73
2022/02/12 01:10:50;;;;;;;7.60;4.25;;;24.70;70.40;;;;;;5049140;28;20383;-72
2022/02/12 01:13:17;;;;;;;9.80;5.10;;;24.70;70.40;;;;;;5046138;28;20087;-72
2022/02/12 01:15:44;;;;;;;10.65;4.13;;;24.60;70.40;;;;;;5038743;28;20041;-72
2022/02/12 01:18:11;;;;;;;7.72;4.95;;;24.60;70.30;;;;;;5042890;28;20071;-72
2022/02/12 01:20:39;;;;;;;10.15;4.13;;;24.60;70.40;;;;;;5049249;28;20148;-71
2022/02/12 01:23:06;;;;;;;16.42;5.25;;;24.60;70.40;;;;;;5049280;28;20036;-71
2022/02/12 01:25:34;;;;;;;14.93;5.88;;;24.60;70.50;;;;;;5040988;28;20079;-71
2022/02/12 01:28:00;;;;;;;11.15;4.45;;;24.60;70.50;;;;;;5047461;28;20028;-72
2022/02/12 01:30:27;;;;;;;12.85;4.85;;;24.60;70.60;;;;;;5048258;28;20029;-72
2022/02/12 01:32:53;;;;;;;13.68;4.65;;;24.60;70.70;;;;;;5050088;28;20071;-72
2022/02/12 01:35:23;;;;;;;6.55;4.20;;;24.60;70.70;;;;;;5048335;28;20041;-72
2022/02/12 01:37:50;;;;;;;8.77;5.28;;;24.60;70.80;;;;;;5048923;28;20013;-72
2022/02/12 01:40:21;;;;;;;11.40;5.70;;;24.60;70.70;;;;;;5049326;28;20025;-72
2022/02/12 01:42:48;;;;;;;12.52;6.47;;;24.50;70.60;;;;;;5049390;28;20861;-73
2022/02/12 01:45:15;;;;;;;11.27;7.35;;;24.50;71.30;;;;;;5053246;28;20025;-72
2022/02/12 01:47:41;;;;;;;15.80;8.65;;;24.50;70.60;;;;;;5050879;28;20025;-72
2022/02/12 01:50:08;;;;;;;13.30;8.57;;;24.50;70.60;;;;;;5051955;28;20117;-72
2022/02/12 01:52:37;;;;;;;17.17;9.70;;;24.50;70.70;;;;;;5052466;28;20380;-71
2022/02/12 01:55:06;;;;;;;15.50;9.68;;;24.40;70.70;;;;;;5052214;28;20051;-72
2022/02/12 01:57:33;;;;;;;12.55;8.88;;;24.40;70.70;;;;;;5053061;28;20024;-72
2022/02/12 02:00:00;;;;;;;20.88;10.10;;;24.40;70.70;;;;;;5049495;28;20021;-72
2022/02/12 02:02:27;;;;;;;13.25;9.50;;;24.40;70.70;;;;;;5052659;28;20114;-72
2022/02/12 02:04:53;;;;;;;19.58;9.52;;;24.40;70.70;;;;;;5052201;28;20480;-71
2022/02/12 02:07:20;;;;;;;24.88;10.18;;;24.40;70.80;;;;;;5049033;28;20021;-72
2022/02/12 02:09:47;;;;;;;18.73;9.52;;;24.40;71.10;;;;;;5051962;28;20112;-75
2022/02/12 02:12:13;;;;;;;24.85;11.95;;;24.40;71.30;;;;;;5052071;28;20425;-71
2022/02/12 02:14:41;;;;;;;16.90;10.63;;;24.40;71.40;;;;;;5041094;28;20032;-75
2022/02/12 02:17:09;;;;;;;16.95;11.02;;;24.40;71.30;;;;;;5050725;28;20549;-71
2022/02/12 02:19:36;;;;;;;21.10;11.48;;;24.40;71.20;;;;;;5052534;28;20049;-71
2022/02/12 02:22:03;;;;;;;19.38;12.75;;;24.30;71.20;;;;;;5047116;28;20594;-72
2022/02/12 02:24:31;;;;;;;20.77;12.07;;;24.30;71.20;;;;;;5052125;28;20362;-74
2022/02/12 02:27:06;;;;;;;36.58;12.27;;;24.30;71.30;;;;;;5051451;28;20033;-72
2022/02/12 02:29:32;;;;;;;;;;;24.30;71.30;;;;;;5052329;28;20025;-75
2022/02/12 02:31:59;;;;;;;16.27;11.52;;;24.30;71.30;;;;;;5050633;28;19951;-75
2022/02/12 02:34:26;;;;;;;17.20;12.02;;;24.30;71.20;;;;;;5051056;28;20033;-76
2022/02/12 02:36:53;;;;;;;16.92;11.35;;;24.30;71.20;;;;;;5051855;28;20021;-73
2022/02/12 02:39:20;;;;;;;18.30;12.02;;;24.30;71.30;;;;;;5050486;28;20130;-72
2022/02/12 02:41:46;;;;;;;18.73;12.90;;;24.30;71.30;;;;;;5052675;28;20021;-73
2022/02/12 02:44:13;;;;;;;18.75;12.00;;;24.20;71.30;;;;;;5051132;28;20100;-71
2022/02/12 02:46:40;;;;;;;19.17;13.73;;;24.20;71.30;;;;;;5052262;28;20113;-72
2022/02/12 02:49:06;;;;;;;20.55;14.32;;;24.20;71.30;;;;;;5048870;28;20567;-71
2022/02/12 02:57:07;;;;;;;24.38;16.20;;;24.20;71.30;;;;;;5047431;28;20048;-71
2022/02/12 02:59:33;;;;;;;23.45;15.13;;;24.20;71.30;;;;;;5051977;28;20035;-74
2022/02/12 03:02:00;;;;;;;18.38;14.90;;;24.20;71.40;;;;;;5051325;28;20028;-71
2022/02/12 03:04:26;;;;;;;25.10;15.23;;;24.20;71.40;;;;;;5051248;28;20025;-72
2022/02/12 03:06:53;;;;;;;19.80;14.65;;;24.20;71.40;;;;;;5051879;28;20471;-72
2022/02/12 03:09:19;;;;;;;35.08;22.58;;;24.10;71.40;;;;;;5048093;28;20044;-73
2022/02/12 03:11:46;;;;;;;40.53;29.02;;;24.10;71.50;;;;;;5051630;28;20021;-73
2022/02/12 03:14:13;;;;;;;43.65;28.80;;;24.10;71.50;;;;;;5049990;28;20025;-73
2022/02/12 03:16:39;;;;;;;27.33;21.38;;;24.10;71.50;;;;;;5051661;28;20127;-71
2022/02/12 03:19:05;;;;;;;29.73;19.42;;;24.10;71.40;;;;;;5051026;28;20100;-71
2022/02/12 03:21:32;;;;;;;27.60;17.35;;;24.10;71.60;;;;;;5050454;28;20045;-72
2022/02/12 03:23:58;;;;;;;20.00;15.82;;;24.00;71.60;;;;;;5042562;28;20063;-74
2022/02/12 03:26:25;;;;;;;34.13;16.27;;;24.00;71.50;;;;;;5048169;28;20029;-72
2022/02/12 03:28:51;;;;;;;28.85;15.93;;;24.00;71.60;;;;;;5051476;28;20468;-72
2022/02/12 03:31:18;;;;;;;25.55;17.15;;;24.00;72.00;;;;;;5050142;28;20025;-71
2022/02/12 03:33:44;;;;;;;25.27;16.40;;;24.00;72.30;;;;;;5051154;28;20035;-72
2022/02/12 03:36:11;;;;;;;33.13;15.88;;;24.00;72.40;;;;;;5050168;28;20037;-72
2022/02/12 03:38:39;;;;;;;21.27;15.73;;;23.90;72.40;;;;;;5051061;28;20129;-71
2022/02/12 03:41:07;;;;;;;23.05;15.95;;;24.00;72.30;;;;;;5049437;28;20388;-72
2022/02/12 03:43:37;;;;;;;25.52;17.80;;;23.90;71.90;;;;;;5050386;28;20499;-72
2022/02/12 03:46:05;;;;;;;23.88;17.30;;;23.90;71.80;;;;;;5048582;28;20100;-72
2022/02/12 03:48:32;;;;;;;24.27;17.30;;;23.90;71.80;;;;;;5049872;28;20096;-72
2022/02/12 03:50:59;;;;;;;33.53;17.83;;;23.90;71.80;;;;;;5050597;28;20099;-73
2022/02/12 03:53:26;;;;;;;27.98;17.55;;;23.90;71.70;;;;;;5048285;28;20032;-72
2022/02/12 03:55:52;;;;;;;26.08;20.40;;;23.90;71.70;;;;;;5045401;28;20064;-72
2022/02/12 03:58:19;;;;;;;28.75;18.30;;;23.80;71.70;;;;;;5047950;28;20028;-72
2022/02/12 04:00:47;;;;;;;40.47;19.95;;;23.80;71.80;;;;;;5050167;28;20082;-71
2022/02/12 04:03:15;;;;;;;26.25;20.65;;;23.90;71.90;;;;;;5046781;28;20021;-72
2022/02/12 04:05:43;;;;;;;63.58;23.13;;;23.80;71.80;;;;;;5048205;28;20095;-72
2022/02/12 04:08:10;;;;;;;57.03;37.60;;;23.80;71.80;;;;;;5047645;28;20067;-73
2022/02/12 04:10:37;;;;;;;38.38;26.80;;;23.80;72.30;;;;;;5048292;28;20929;-72
2022/02/12 04:13:03;;;;;;;36.13;25.73;;;23.80;73.00;;;;;;5050085;28;20070;-72
2022/02/12 04:15:30;;;;;;;30.73;20.67;;;23.70;73.70;;;;;;5048912;28;20064;-72
2022/02/12 04:17:56;;;;;;;30.40;20.33;;;23.70;74.10;;;;;;5044498;28;20078;-74
2022/02/12 04:20:24;;;;;;;28.35;19.00;;;23.70;74.20;;;;;;5047072;28;20037;-73
2022/02/12 04:22:51;;;;;;;26.77;18.92;;;23.60;74.10;;;;;;5046041;28;20040;-73
2022/02/12 04:25:19;;;;;;;28.73;18.48;;;23.60;73.90;;;;;;5044897;28;20021;-73
2022/02/12 04:27:46;;;;;;;33.22;18.13;;;23.60;73.80;;;;;;5046959;28;20025;-72
2022/02/12 04:30:15;;;;;;;28.73;17.50;;;23.60;74.10;;;;;;5046922;28;20098;-72
2022/02/12 04:32:43;;;;;;;33.30;18.60;;;23.60;74.10;;;;;;5047381;28;20029;-72
2022/02/12 04:35:10;;;;;;;27.25;17.58;;;23.60;74.30;;;;;;5046880;28;20033;-72
2022/02/12 04:37:37;;;;;;;26.08;17.40;;;23.60;74.40;;;;;;5047606;28;20028;-73
2022/02/12 04:40:04;;;;;;;42.22;19.23;;;23.60;74.60;;;;;;5047099;28;20078;-72
2022/02/12 04:42:31;;;;;;;29.67;17.17;;;23.60;74.70;;;;;;5047860;28;20029;-74
2022/02/12 04:44:57;;;;;;;24.20;16.85;;;23.60;74.70;;;;;;5046742;28;20365;-74
2022/02/12 04:47:24;;;;;;;67.63;22.38;;;23.60;74.60;;;;;;5047994;28;20523;-74
2022/02/12 04:49:51;;;;;;;53.63;27.58;;;23.60;74.50;;;;;;5047086;28;20025;-72
2022/02/12 04:52:20;;;;;;;49.95;33.20;;;23.60;74.50;;;;;;5048862;28;20035;-73
2022/02/12 04:54:46;;;;;;;44.78;28.67;;;23.60;74.40;;;;;;5047622;28;20039;-73
2022/02/12 04:57:13;;;;;;;97.13;34.13;;;23.60;74.10;;;;;;5047871;28;20052;-72
2022/02/12 04:59:40;;;;;;;101.07;30.90;;;23.60;74.20;;;;;;5046448;28;20032;-72
2022/02/12 05:02:07;;;;;;;81.70;30.08;;;23.60;74.20;;;;;;5045630;28;20021;-74
2022/02/12 05:04:33;;;;;;;61.88;27.73;;;23.60;74.60;;;;;;5048120;28;20029;-73
2022/02/12 05:07:00;;;;;;;54.13;28.17;;;23.60;74.60;;;;;;5045005;28;20465;-73
2022/02/12 05:09:27;;;;;;;59.38;28.45;;;23.60;74.50;;;;;;5046459;28;20102;-74
2022/02/12 05:11:54;;;;;;;42.30;27.48;;;23.50;74.60;;;;;;5048047;28;20037;-73
2022/02/12 05:14:21;;;;;;;39.85;26.67;;;23.60;74.50;;;;;;5048129;28;20071;-72
2022/02/12 05:16:48;;;;;;;58.90;26.52;;;23.50;74.30;;;;;;5051074;28;20028;-73
2022/02/12 05:19:14;;;;;;;96.65;31.25;;;23.60;74.40;;;;;;5053044;28;20035;-73
2022/02/12 05:21:41;;;;;;;74.28;32.20;;;23.50;74.70;;;;;;5054223;28;20490;-74
2022/02/12 05:24:08;;;;;;;75.88;39.78;;;23.50;75.00;;;;;;5053642;28;20024;-73
2022/02/12 05:26:34;;;;;;;50.50;34.13;;;23.50;75.30;;;;;;5055331;28;20075;-76
2022/02/12 05:29:01;;;;;;;175.70;37.47;;;23.60;75.10;;;;;;5053796;28;20021;-73
2022/02/12 05:31:27;;;;;;;126.70;34.03;;;23.50;74.60;;;;;;5054283;28;20036;-73
2022/02/12 05:33:54;;;;;;;78.88;26.90;;;23.50;74.60;;;;;;5054782;28;20422;-73
2022/02/12 05:36:20;;;;;;;70.07;24.70;;;23.50;74.70;;;;;;5054215;28;20033;-72
2022/02/12 05:38:47;;;;;;;68.80;25.25;;;23.50;74.70;;;;;;5054550;28;20072;-72
2022/02/12 05:41:15;;;;;;;35.47;21.17;;;23.50;75.10;;;;;;5053120;28;20032;-73
2022/02/12 05:43:42;;;;;;;37.60;18.60;;;23.50;75.70;;;;;;5054663;28;20515;-73
2022/02/12 05:46:11;;;;;;;28.55;19.77;;;23.50;76.00;;;;;;5051550;28;20785;-72
2022/02/12 05:49:17;;;;;;;27.60;18.95;;;23.60;76.20;;;;;;5050893;28;20071;-73
2022/02/12 05:51:43;;;;;;;25.67;17.63;;;23.60;76.30;;;;;;5053586;28;20112;-74
2022/02/12 05:54:10;;;;;;;37.47;19.33;;;23.60;76.40;;;;;;5049780;28;20472;-73
2022/02/12 05:56:36;;;;;;;41.00;18.40;;;23.60;76.40;;;;;;5053218;28;20099;-74
